sensor_id;sensor_type;location;lat;lon;timestamp;temperature;humidity
51615;DHT22;37695;52.960;6.188;2022-10-13T00:01:17;10.00;99.90
51615;DHT22;37695;52.960;6.188;2022-10-13T00:03:43;10.00;99.90
51615;DHT22;37695;52.960;6.188;2022-10-13T00:06:14;10.00;99.90
51615;DHT22;37695;52.960;6.188;2022-10-13T00:08:40;10.00;99.90
51615;DHT22;37695;52.960;6.188;2022-10-13T00:11:32;9.90;99.90
51615;DHT22;37695;52.960;6.188;2022-10-13T00:14:00;9.30;99.90
51615;DHT22;37695;52.960;6.188;2022-10-13T00:16:27;9.90;99.90
51615;DHT22;37695;52.960;6.188;2022-10-13T00:18:54;9.90;99.90
51615;DHT22;37695;52.960;6.188;2022-10-13T00:21:22;10.00;99.90
51615;DHT22;37695;52.960;6.188;2022-10-13T00:23:50;9.90;99.90
51615;DHT22;37695;52.960;6.188;2022-10-13T00:26:17;9.90;99.90
51615;DHT22;37695;52.960;6.188;2022-10-13T00:28:43;9.90;99.90
51615;DHT22;37695;52.960;6.188;2022-10-13T00:31:28;9.90;99.90
51615;DHT22;37695;52.960;6.188;2022-10-13T00:33:56;9.90;99.90
51615;DHT22;37695;52.960;6.188;2022-10-13T00:36:22;9.90;99.90
51615;DHT22;37695;52.960;6.188;2022-10-13T00:38:48;9.90;99.90
51615;DHT22;37695;52.960;6.188;2022-10-13T00:41:14;9.90;99.90
51615;DHT22;37695;52.960;6.188;2022-10-13T00:46:24;9.90;99.90
51615;DHT22;37695;52.960;6.188;2022-10-13T00:48:50;9.90;99.90
51615;DHT22;37695;52.960;6.188;2022-10-13T00:51:20;9.90;99.90
51615;DHT22;37695;52.960;6.188;2022-10-13T00:53:47;9.90;99.90
51615;DHT22;37695;52.960;6.188;2022-10-13T00:56:14;9.90;99.90
51615;DHT22;37695;52.960;6.188;2022-10-13T00:58:42;9.90;99.90
51615;DHT22;37695;52.960;6.188;2022-10-13T01:01:08;9.90;99.90
51615;DHT22;37695;52.960;6.188;2022-10-13T01:03:34;9.90;99.90
51615;DHT22;37695;52.960;6.188;2022-10-13T01:06:02;9.90;99.90
51615;DHT22;37695;52.960;6.188;2022-10-13T01:08:28;9.90;99.90
51615;DHT22;37695;52.960;6.188;2022-10-13T01:14:06;9.90;99.90
51615;DHT22;37695;52.960;6.188;2022-10-13T01:30:57;9.90;99.90
51615;DHT22;37695;52.960;6.188;2022-10-13T01:33:37;10.00;99.90
51615;DHT22;37695;52.960;6.188;2022-10-13T01:36:38;10.00;99.90
51615;DHT22;37695;52.960;6.188;2022-10-13T01:39:32;10.00;99.90
51615;DHT22;37695;52.960;6.188;2022-10-13T01:42:05;10.00;99.90
51615;DHT22;37695;52.960;6.188;2022-10-13T01:44:40;10.00;99.90
51615;DHT22;37695;52.960;6.188;2022-10-13T01:47:08;10.00;99.90
51615;DHT22;37695;52.960;6.188;2022-10-13T01:49:35;10.00;99.90
51615;DHT22;37695;52.960;6.188;2022-10-13T01:52:05;10.00;99.90
51615;DHT22;37695;52.960;6.188;2022-10-13T01:54:32;10.00;99.90
51615;DHT22;37695;52.960;6.188;2022-10-13T01:56:58;10.00;99.90
51615;DHT22;37695;52.960;6.188;2022-10-13T01:59:24;10.10;99.90
51615;DHT22;37695;52.960;6.188;2022-10-13T02:02:14;10.00;99.90
51615;DHT22;37695;52.960;6.188;2022-10-13T02:07:34;10.00;99.90
51615;DHT22;37695;52.960;6.188;2022-10-13T02:10:13;10.00;99.90
51615;DHT22;37695;52.960;6.188;2022-10-13T02:12:50;10.00;99.90
51615;DHT22;37695;52.960;6.188;2022-10-13T02:15:20;10.00;99.90
51615;DHT22;37695;52.960;6.188;2022-10-13T02:17:46;10.00;99.90
51615;DHT22;37695;52.960;6.188;2022-10-13T02:20:14;10.00;99.90
51615;DHT22;37695;52.960;6.188;2022-10-13T02:22:45;10.00;99.90
51615;DHT22;37695;52.960;6.188;2022-10-13T02:25:11;10.00;99.90
51615;DHT22;37695;52.960;6.188;2022-10-13T02:27:37;10.00;99.90
51615;DHT22;37695;52.960;6.188;2022-10-13T02:30:04;10.10;99.90
51615;DHT22;37695;52.960;6.188;2022-10-13T02:32:29;10.10;99.90
51615;DHT22;37695;52.960;6.188;2022-10-13T02:34:55;10.10;99.90
51615;DHT22;37695;52.960;6.188;2022-10-13T02:37:21;10.10;99.90
51615;DHT22;37695;52.960;6.188;2022-10-13T02:39:49;10.10;99.90
51615;DHT22;37695;52.960;6.188;2022-10-13T02:42:15;10.10;99.90
51615;DHT22;37695;52.960;6.188;2022-10-13T02:44:40;10.10;99.90
51615;DHT22;37695;52.960;6.188;2022-10-13T02:47:06;10.10;99.90
51615;DHT22;37695;52.960;6.188;2022-10-13T02:49:31;10.10;99.90
51615;DHT22;37695;52.960;6.188;2022-10-13T02:51:57;10.10;99.90
51615;DHT22;37695;52.960;6.188;2022-10-13T02:54:22;10.10;99.90
51615;DHT22;37695;52.960;6.188;2022-10-13T02:56:48;10.10;99.90
51615;DHT22;37695;52.960;6.188;2022-10-13T02:59:13;10.10;99.90
51615;DHT22;37695;52.960;6.188;2022-10-13T03:01:39;10.10;99.90
51615;DHT22;37695;52.960;6.188;2022-10-13T03:04:07;10.10;99.90
51615;DHT22;37695;52.960;6.188;2022-10-13T03:06:33;10.10;99.90
51615;DHT22;37695;52.960;6.188;2022-10-13T03:08:58;10.10;99.90
51615;DHT22;37695;52.960;6.188;2022-10-13T03:11:24;10.00;99.90
51615;DHT22;37695;52.960;6.188;2022-10-13T03:13:49;10.10;99.90
51615;DHT22;37695;52.960;6.188;2022-10-13T03:16:15;10.10;99.90
51615;DHT22;37695;52.960;6.188;2022-10-13T03:18:41;10.10;99.90
51615;DHT22;37695;52.960;6.188;2022-10-13T03:21:07;10.10;99.90
51615;DHT22;37695;52.960;6.188;2022-10-13T03:23:33;10.10;99.90
51615;DHT22;37695;52.960;6.188;2022-10-13T03:25:59;10.10;99.90
51615;DHT22;37695;52.960;6.188;2022-10-13T03:28:25;10.10;99.90
51615;DHT22;37695;52.960;6.188;2022-10-13T03:31:02;10.10;99.90
51615;DHT22;37695;52.960;6.188;2022-10-13T03:33:27;10.10;99.90
51615;DHT22;37695;52.960;6.188;2022-10-13T03:35:53;10.10;99.90
51615;DHT22;37695;52.960;6.188;2022-10-13T03:38:19;10.10;99.90
51615;DHT22;37695;52.960;6.188;2022-10-13T03:40:44;10.10;99.90
51615;DHT22;37695;52.960;6.188;2022-10-13T03:43:10;10.10;99.90
51615;DHT22;37695;52.960;6.188;2022-10-13T03:45:35;10.10;99.90
51615;DHT22;37695;52.960;6.188;2022-10-13T03:48:01;10.10;99.90
51615;DHT22;37695;52.960;6.188;2022-10-13T03:50:26;10.10;99.90
51615;DHT22;37695;52.960;6.188;2022-10-13T03:52:52;10.10;99.90
51615;DHT22;37695;52.960;6.188;2022-10-13T03:55:17;10.10;99.90
51615;DHT22;37695;52.960;6.188;2022-10-13T03:57:43;10.10;99.90
51615;DHT22;37695;52.960;6.188;2022-10-13T04:00:09;10.10;99.90
51615;DHT22;37695;52.960;6.188;2022-10-13T04:02:35;10.20;99.90
51615;DHT22;37695;52.960;6.188;2022-10-13T04:05:00;10.10;99.90
51615;DHT22;37695;52.960;6.188;2022-10-13T04:07:26;10.20;99.90
51615;DHT22;37695;52.960;6.188;2022-10-13T04:09:52;10.20;99.90
51615;DHT22;37695;52.960;6.188;2022-10-13T04:12:17;10.20;99.90
51615;DHT22;37695;52.960;6.188;2022-10-13T04:14:43;10.20;99.90
51615;DHT22;37695;52.960;6.188;2022-10-13T04:17:09;10.20;99.90
51615;DHT22;37695;52.960;6.188;2022-10-13T04:19:34;10.20;99.90
51615;DHT22;37695;52.960;6.188;2022-10-13T04:22:00;10.20;99.90
51615;DHT22;37695;52.960;6.188;2022-10-13T04:24:25;10.20;99.90
51615;DHT22;37695;52.960;6.188;2022-10-13T04:26:51;10.20;99.90
51615;DHT22;37695;52.960;6.188;2022-10-13T04:29:16;10.20;99.90
51615;DHT22;37695;52.960;6.188;2022-10-13T04:31:42;10.20;99.90
51615;DHT22;37695;52.960;6.188;2022-10-13T04:34:08;10.20;99.90
51615;DHT22;37695;52.960;6.188;2022-10-13T04:36:34;10.20;99.90
51615;DHT22;37695;52.960;6.188;2022-10-13T04:39:00;10.20;99.90
51615;DHT22;37695;52.960;6.188;2022-10-13T04:41:25;10.20;99.90
51615;DHT22;37695;52.960;6.188;2022-10-13T04:43:52;10.30;99.90
51615;DHT22;37695;52.960;6.188;2022-10-13T04:46:22;10.30;99.90
51615;DHT22;37695;52.960;6.188;2022-10-13T04:48:49;10.30;99.90
51615;DHT22;37695;52.960;6.188;2022-10-13T04:51:18;10.30;99.90
51615;DHT22;37695;52.960;6.188;2022-10-13T04:53:44;10.30;99.90
51615;DHT22;37695;52.960;6.188;2022-10-13T04:56:15;10.30;99.90
51615;DHT22;37695;52.960;6.188;2022-10-13T04:58:43;10.30;99.90
51615;DHT22;37695;52.960;6.188;2022-10-13T05:01:14;10.30;99.90
51615;DHT22;37695;52.960;6.188;2022-10-13T05:03:40;10.30;99.90
51615;DHT22;37695;52.960;6.188;2022-10-13T05:06:15;10.30;99.90
51615;DHT22;37695;52.960;6.188;2022-10-13T05:08:42;10.30;99.90
51615;DHT22;37695;52.960;6.188;2022-10-13T05:11:08;10.30;99.90
51615;DHT22;37695;52.960;6.188;2022-10-13T05:13:34;10.30;99.90
51615;DHT22;37695;52.960;6.188;2022-10-13T05:16:05;10.30;99.90
51615;DHT22;37695;52.960;6.188;2022-10-13T05:18:32;10.30;99.90
51615;DHT22;37695;52.960;6.188;2022-10-13T05:21:07;10.30;99.90
51615;DHT22;37695;52.960;6.188;2022-10-13T05:23:34;10.40;99.90
51615;DHT22;37695;52.960;6.188;2022-10-13T05:26:02;10.40;99.90
51615;DHT22;37695;52.960;6.188;2022-10-13T05:28:28;10.40;99.90
51615;DHT22;37695;52.960;6.188;2022-10-13T05:30:53;10.40;99.90
51615;DHT22;37695;52.960;6.188;2022-10-13T05:33:19;10.40;99.90
51615;DHT22;37695;52.960;6.188;2022-10-13T05:35:44;10.40;99.90
51615;DHT22;37695;52.960;6.188;2022-10-13T05:38:10;10.40;99.90
51615;DHT22;37695;52.960;6.188;2022-10-13T05:40:35;10.50;99.90
51615;DHT22;37695;52.960;6.188;2022-10-13T05:43:01;10.50;99.90
51615;DHT22;37695;52.960;6.188;2022-10-13T05:45:28;10.50;99.90
51615;DHT22;37695;52.960;6.188;2022-10-13T05:47:56;10.50;99.90
51615;DHT22;37695;52.960;6.188;2022-10-13T05:50:22;10.50;99.90
51615;DHT22;37695;52.960;6.188;2022-10-13T05:52:47;10.50;99.90
51615;DHT22;37695;52.960;6.188;2022-10-13T05:55:15;10.50;99.90
51615;DHT22;37695;52.960;6.188;2022-10-13T05:57:44;10.60;99.90
51615;DHT22;37695;52.960;6.188;2022-10-13T06:00:14;10.60;99.90
51615;DHT22;37695;52.960;6.188;2022-10-13T06:02:45;10.60;99.90
51615;DHT22;37695;52.960;6.188;2022-10-13T06:05:16;10.60;99.90
51615;DHT22;37695;52.960;6.188;2022-10-13T06:07:44;10.70;99.90
51615;DHT22;37695;52.960;6.188;2022-10-13T06:10:10;10.70;99.90
51615;DHT22;37695;52.960;6.188;2022-10-13T06:12:36;10.70;99.90
51615;DHT22;37695;52.960;6.188;2022-10-13T06:15:02;10.70;99.90
51615;DHT22;37695;52.960;6.188;2022-10-13T06:17:28;10.70;99.90
51615;DHT22;37695;52.960;6.188;2022-10-13T06:19:53;10.80;99.90
51615;DHT22;37695;52.960;6.188;2022-10-13T06:22:19;10.80;99.90
51615;DHT22;37695;52.960;6.188;2022-10-13T06:24:46;10.80;99.90
51615;DHT22;37695;52.960;6.188;2022-10-13T06:27:12;10.80;99.90
51615;DHT22;37695;52.960;6.188;2022-10-13T06:29:38;10.80;99.90
51615;DHT22;37695;52.960;6.188;2022-10-13T06:32:04;10.80;99.90
51615;DHT22;37695;52.960;6.188;2022-10-13T06:34:29;10.80;99.90
51615;DHT22;37695;52.960;6.188;2022-10-13T06:36:55;10.80;99.90
51615;DHT22;37695;52.960;6.188;2022-10-13T06:39:20;10.80;99.90
51615;DHT22;37695;52.960;6.188;2022-10-13T06:41:46;10.90;99.90
51615;DHT22;37695;52.960;6.188;2022-10-13T06:44:11;10.90;99.90
51615;DHT22;37695;52.960;6.188;2022-10-13T06:46:37;10.90;99.90
51615;DHT22;37695;52.960;6.188;2022-10-13T06:49:02;11.00;99.90
51615;DHT22;37695;52.960;6.188;2022-10-13T06:51:28;11.00;99.90
51615;DHT22;37695;52.960;6.188;2022-10-13T06:53:56;11.00;99.90
51615;DHT22;37695;52.960;6.188;2022-10-13T06:56:22;11.10;99.90
51615;DHT22;37695;52.960;6.188;2022-10-13T06:58:47;11.10;99.90
51615;DHT22;37695;52.960;6.188;2022-10-13T07:01:13;11.10;99.90
51615;DHT22;37695;52.960;6.188;2022-10-13T07:03:39;11.20;99.90
51615;DHT22;37695;52.960;6.188;2022-10-13T07:06:05;11.20;99.90
51615;DHT22;37695;52.960;6.188;2022-10-13T07:08:32;11.30;99.90
51615;DHT22;37695;52.960;6.188;2022-10-13T07:10:58;11.30;99.90
51615;DHT22;37695;52.960;6.188;2022-10-13T07:13:24;11.40;99.90
51615;DHT22;37695;52.960;6.188;2022-10-13T07:15:50;11.40;99.90
51615;DHT22;37695;52.960;6.188;2022-10-13T07:18:16;11.40;99.90
51615;DHT22;37695;52.960;6.188;2022-10-13T07:20:41;11.50;99.90
51615;DHT22;37695;52.960;6.188;2022-10-13T07:23:07;11.50;99.90
51615;DHT22;37695;52.960;6.188;2022-10-13T07:25:32;11.50;99.90
51615;DHT22;37695;52.960;6.188;2022-10-13T07:27:58;11.60;99.90
51615;DHT22;37695;52.960;6.188;2022-10-13T07:30:25;11.60;99.90
51615;DHT22;37695;52.960;6.188;2022-10-13T07:32:50;11.60;99.90
51615;DHT22;37695;52.960;6.188;2022-10-13T07:35:16;11.70;99.90
51615;DHT22;37695;52.960;6.188;2022-10-13T07:37:42;11.70;99.90
51615;DHT22;37695;52.960;6.188;2022-10-13T07:40:08;11.80;99.90
51615;DHT22;37695;52.960;6.188;2022-10-13T07:42:33;11.80;99.90
51615;DHT22;37695;52.960;6.188;2022-10-13T07:44:59;11.90;99.90
51615;DHT22;37695;52.960;6.188;2022-10-13T07:47:25;11.90;99.90
51615;DHT22;37695;52.960;6.188;2022-10-13T07:49:50;12.00;99.90
51615;DHT22;37695;52.960;6.188;2022-10-13T07:52:16;12.00;99.90
51615;DHT22;37695;52.960;6.188;2022-10-13T07:54:41;12.10;99.90
51615;DHT22;37695;52.960;6.188;2022-10-13T07:57:07;12.00;99.90
51615;DHT22;37695;52.960;6.188;2022-10-13T07:59:33;12.10;99.90
51615;DHT22;37695;52.960;6.188;2022-10-13T08:01:59;12.10;99.90
51615;DHT22;37695;52.960;6.188;2022-10-13T08:04:30;12.20;99.90
51615;DHT22;37695;52.960;6.188;2022-10-13T08:06:55;12.20;99.90
51615;DHT22;37695;52.960;6.188;2022-10-13T08:09:21;12.30;99.90
51615;DHT22;37695;52.960;6.188;2022-10-13T08:11:46;12.30;99.90
51615;DHT22;37695;52.960;6.188;2022-10-13T08:14:12;12.30;99.90
51615;DHT22;37695;52.960;6.188;2022-10-13T08:16:38;12.30;99.90
51615;DHT22;37695;52.960;6.188;2022-10-13T08:19:04;12.40;99.90
51615;DHT22;37695;52.960;6.188;2022-10-13T08:21:30;12.40;99.90
51615;DHT22;37695;52.960;6.188;2022-10-13T08:23:56;12.50;99.90
51615;DHT22;37695;52.960;6.188;2022-10-13T08:26:24;12.50;99.90
51615;DHT22;37695;52.960;6.188;2022-10-13T08:28:50;12.50;99.90
51615;DHT22;37695;52.960;6.188;2022-10-13T08:31:16;12.50;99.90
51615;DHT22;37695;52.960;6.188;2022-10-13T08:33:42;12.50;99.90
51615;DHT22;37695;52.960;6.188;2022-10-13T08:36:07;12.50;99.90
51615;DHT22;37695;52.960;6.188;2022-10-13T08:38:34;12.50;99.90
51615;DHT22;37695;52.960;6.188;2022-10-13T08:41:00;12.60;99.90
51615;DHT22;37695;52.960;6.188;2022-10-13T08:43:26;12.60;99.90
51615;DHT22;37695;52.960;6.188;2022-10-13T08:45:59;12.60;99.90
51615;DHT22;37695;52.960;6.188;2022-10-13T08:48:30;12.60;99.90
51615;DHT22;37695;52.960;6.188;2022-10-13T08:51:00;12.60;99.90
51615;DHT22;37695;52.960;6.188;2022-10-13T08:53:38;12.70;99.90
51615;DHT22;37695;52.960;6.188;2022-10-13T08:56:18;12.70;99.90
51615;DHT22;37695;52.960;6.188;2022-10-13T08:58:46;12.70;99.90
51615;DHT22;37695;52.960;6.188;2022-10-13T09:01:27;12.70;99.90
51615;DHT22;37695;52.960;6.188;2022-10-13T09:06:39;12.80;99.90
51615;DHT22;37695;52.960;6.188;2022-10-13T09:09:15;12.80;99.90
51615;DHT22;37695;52.960;6.188;2022-10-13T09:11:51;12.80;99.90
51615;DHT22;37695;52.960;6.188;2022-10-13T09:14:28;12.80;99.90
51615;DHT22;37695;52.960;6.188;2022-10-13T09:17:11;12.90;99.90
51615;DHT22;37695;52.960;6.188;2022-10-13T09:19:36;12.90;99.90
51615;DHT22;37695;52.960;6.188;2022-10-13T09:22:30;12.90;99.90
51615;DHT22;37695;52.960;6.188;2022-10-13T09:27:41;13.00;99.90
51615;DHT22;37695;52.960;6.188;2022-10-13T09:30:41;13.10;99.90
51615;DHT22;37695;52.960;6.188;2022-10-13T09:35:34;13.20;99.90
51615;DHT22;37695;52.960;6.188;2022-10-13T09:38:14;13.20;99.90
51615;DHT22;37695;52.960;6.188;2022-10-13T09:40:42;13.20;99.90
51615;DHT22;37695;52.960;6.188;2022-10-13T09:45:52;13.20;99.90
51615;DHT22;37695;52.960;6.188;2022-10-13T09:48:27;13.10;99.90
51615;DHT22;37695;52.960;6.188;2022-10-13T09:50:55;13.20;99.90
51615;DHT22;37695;52.960;6.188;2022-10-13T09:53:34;13.10;99.90
51615;DHT22;37695;52.960;6.188;2022-10-13T09:56:22;13.10;99.90
51615;DHT22;37695;52.960;6.188;2022-10-13T10:01:27;13.10;99.90
51615;DHT22;37695;52.960;6.188;2022-10-13T10:03:56;13.10;99.90
51615;DHT22;37695;52.960;6.188;2022-10-13T10:06:22;13.10;99.90
51615;DHT22;37695;52.960;6.188;2022-10-13T10:11:51;13.20;99.90
51615;DHT22;37695;52.960;6.188;2022-10-13T10:14:23;13.30;99.90
51615;DHT22;37695;52.960;6.188;2022-10-13T10:17:00;13.40;99.90
51615;DHT22;37695;52.960;6.188;2022-10-13T10:24:54;13.40;99.90
51615;DHT22;37695;52.960;6.188;2022-10-13T10:27:44;13.40;99.90
51615;DHT22;37695;52.960;6.188;2022-10-13T10:30:18;13.40;99.90
51615;DHT22;37695;52.960;6.188;2022-10-13T10:38:23;13.40;99.90
51615;DHT22;37695;52.960;6.188;2022-10-13T10:43:55;13.40;99.90
51615;DHT22;37695;52.960;6.188;2022-10-13T10:46:33;13.40;99.90
51615;DHT22;37695;52.960;6.188;2022-10-13T10:49:12;13.30;99.90
51615;DHT22;37695;52.960;6.188;2022-10-13T10:51:39;13.40;99.90
51615;DHT22;37695;52.960;6.188;2022-10-13T10:54:20;13.40;99.90
51615;DHT22;37695;52.960;6.188;2022-10-13T10:57:17;13.50;99.90
51615;DHT22;37695;52.960;6.188;2022-10-13T11:00:15;13.50;99.90
51615;DHT22;37695;52.960;6.188;2022-10-13T11:06:03;13.60;99.90
51615;DHT22;37695;52.960;6.188;2022-10-13T11:08:41;13.70;99.90
51615;DHT22;37695;52.960;6.188;2022-10-13T11:16:58;13.80;99.90
51615;DHT22;37695;52.960;6.188;2022-10-13T11:22:09;13.90;99.90
51615;DHT22;37695;52.960;6.188;2022-10-13T11:35:00;14.20;99.90
51615;DHT22;37695;52.960;6.188;2022-10-13T11:40:23;14.30;99.90
51615;DHT22;37695;52.960;6.188;2022-10-13T11:42:58;14.30;99.90
51615;DHT22;37695;52.960;6.188;2022-10-13T11:53:51;14.20;99.90
51615;DHT22;37695;52.960;6.188;2022-10-13T11:59:04;14.20;99.90
51615;DHT22;37695;52.960;6.188;2022-10-13T12:01:29;14.20;99.90
51615;DHT22;37695;52.960;6.188;2022-10-13T12:03:55;14.20;99.90
51615;DHT22;37695;52.960;6.188;2022-10-13T12:06:30;14.20;99.90
51615;DHT22;37695;52.960;6.188;2022-10-13T12:09:03;14.20;99.90
51615;DHT22;37695;52.960;6.188;2022-10-13T12:11:35;14.20;99.90
51615;DHT22;37695;52.960;6.188;2022-10-13T12:14:03;14.20;99.90
51615;DHT22;37695;52.960;6.188;2022-10-13T12:16:30;14.20;99.90
51615;DHT22;37695;52.960;6.188;2022-10-13T12:19:16;14.30;99.90
51615;DHT22;37695;52.960;6.188;2022-10-13T12:22:10;14.30;99.90
51615;DHT22;37695;52.960;6.188;2022-10-13T12:24:36;14.20;99.90
51615;DHT22;37695;52.960;6.188;2022-10-13T12:27:09;14.20;99.90
51615;DHT22;37695;52.960;6.188;2022-10-13T12:29:38;14.30;99.90
51615;DHT22;37695;52.960;6.188;2022-10-13T12:32:22;14.30;99.90
51615;DHT22;37695;52.960;6.188;2022-10-13T12:34:47;14.30;99.90
51615;DHT22;37695;52.960;6.188;2022-10-13T12:37:33;14.30;99.90
51615;DHT22;37695;52.960;6.188;2022-10-13T12:40:02;14.40;99.90
51615;DHT22;37695;52.960;6.188;2022-10-13T12:42:31;14.40;99.90
51615;DHT22;37695;52.960;6.188;2022-10-13T12:44:57;14.40;99.90
51615;DHT22;37695;52.960;6.188;2022-10-13T12:52:51;14.50;99.90
51615;DHT22;37695;52.960;6.188;2022-10-13T12:55:19;14.40;99.90
51615;DHT22;37695;52.960;6.188;2022-10-13T12:57:47;14.50;99.90
51615;DHT22;37695;52.960;6.188;2022-10-13T13:00:20;14.50;99.90
51615;DHT22;37695;52.960;6.188;2022-10-13T13:03:17;14.50;99.90
51615;DHT22;37695;52.960;6.188;2022-10-13T13:05:42;14.50;99.90
51615;DHT22;37695;52.960;6.188;2022-10-13T13:08:27;14.50;99.90
51615;DHT22;37695;52.960;6.188;2022-10-13T13:13:23;14.60;99.90
51615;DHT22;37695;52.960;6.188;2022-10-13T13:15:49;14.60;99.90
51615;DHT22;37695;52.960;6.188;2022-10-13T13:18:32;14.60;99.90
51615;DHT22;37695;52.960;6.188;2022-10-13T13:21:03;14.70;99.90
51615;DHT22;37695;52.960;6.188;2022-10-13T13:23:28;14.70;99.90
51615;DHT22;37695;52.960;6.188;2022-10-13T13:26:18;14.70;99.90
51615;DHT22;37695;52.960;6.188;2022-10-13T13:28:46;14.70;99.90
51615;DHT22;37695;52.960;6.188;2022-10-13T13:31:13;14.70;99.90
51615;DHT22;37695;52.960;6.188;2022-10-13T13:33:39;14.70;99.90
51615;DHT22;37695;52.960;6.188;2022-10-13T13:36:17;14.80;99.90
51615;DHT22;37695;52.960;6.188;2022-10-13T13:38:43;14.80;99.90
51615;DHT22;37695;52.960;6.188;2022-10-13T13:41:10;14.80;99.90
51615;DHT22;37695;52.960;6.188;2022-10-13T13:43:37;14.80;99.90
51615;DHT22;37695;52.960;6.188;2022-10-13T13:46:04;14.80;99.90
51615;DHT22;37695;52.960;6.188;2022-10-13T13:48:30;14.80;99.90
51615;DHT22;37695;52.960;6.188;2022-10-13T13:50:56;14.70;99.90
51615;DHT22;37695;52.960;6.188;2022-10-13T13:53:22;14.90;99.90
51615;DHT22;37695;52.960;6.188;2022-10-13T13:55:47;14.90;99.90
51615;DHT22;37695;52.960;6.188;2022-10-13T13:58:13;15.00;99.90
51615;DHT22;37695;52.960;6.188;2022-10-13T14:00:39;14.90;99.90
51615;DHT22;37695;52.960;6.188;2022-10-13T14:03:04;15.00;99.90
51615;DHT22;37695;52.960;6.188;2022-10-13T14:05:30;14.90;99.90
51615;DHT22;37695;52.960;6.188;2022-10-13T14:07:56;14.90;99.90
51615;DHT22;37695;52.960;6.188;2022-10-13T14:10:22;14.80;99.90
51615;DHT22;37695;52.960;6.188;2022-10-13T14:12:49;14.90;99.90
51615;DHT22;37695;52.960;6.188;2022-10-13T14:15:15;14.80;99.90
51615;DHT22;37695;52.960;6.188;2022-10-13T14:17:41;14.80;99.90
51615;DHT22;37695;52.960;6.188;2022-10-13T14:20:06;14.80;99.90
51615;DHT22;37695;52.960;6.188;2022-10-13T14:22:32;14.80;99.90
51615;DHT22;37695;52.960;6.188;2022-10-13T14:24:58;14.80;99.90
51615;DHT22;37695;52.960;6.188;2022-10-13T14:27:24;14.70;99.90
51615;DHT22;37695;52.960;6.188;2022-10-13T14:29:49;14.70;99.90
51615;DHT22;37695;52.960;6.188;2022-10-13T14:32:15;14.70;99.90
51615;DHT22;37695;52.960;6.188;2022-10-13T14:34:40;14.60;99.90
51615;DHT22;37695;52.960;6.188;2022-10-13T14:37:06;14.60;99.90
51615;DHT22;37695;52.960;6.188;2022-10-13T14:39:31;14.60;99.90
51615;DHT22;37695;52.960;6.188;2022-10-13T14:41:57;14.60;99.90
51615;DHT22;37695;52.960;6.188;2022-10-13T14:44:22;14.60;99.90
51615;DHT22;37695;52.960;6.188;2022-10-13T14:46:48;14.60;99.90
51615;DHT22;37695;52.960;6.188;2022-10-13T14:49:14;14.60;99.90
51615;DHT22;37695;52.960;6.188;2022-10-13T14:51:39;14.60;99.90
51615;DHT22;37695;52.960;6.188;2022-10-13T14:54:05;14.60;99.90
51615;DHT22;37695;52.960;6.188;2022-10-13T14:56:32;14.60;99.90
51615;DHT22;37695;52.960;6.188;2022-10-13T14:58:59;14.70;99.90
51615;DHT22;37695;52.960;6.188;2022-10-13T15:01:26;14.70;99.90
51615;DHT22;37695;52.960;6.188;2022-10-13T15:03:52;14.60;99.90
51615;DHT22;37695;52.960;6.188;2022-10-13T15:06:22;14.60;99.90
51615;DHT22;37695;52.960;6.188;2022-10-13T15:08:49;14.60;99.90
51615;DHT22;37695;52.960;6.188;2022-10-13T15:11:15;14.60;99.90
51615;DHT22;37695;52.960;6.188;2022-10-13T15:13:41;14.50;99.90
51615;DHT22;37695;52.960;6.188;2022-10-13T15:16:20;14.50;99.90
51615;DHT22;37695;52.960;6.188;2022-10-13T15:18:47;14.50;99.90
51615;DHT22;37695;52.960;6.188;2022-10-13T15:21:13;14.50;99.90
51615;DHT22;37695;52.960;6.188;2022-10-13T15:23:39;14.50;99.90
51615;DHT22;37695;52.960;6.188;2022-10-13T15:26:05;14.50;99.90
51615;DHT22;37695;52.960;6.188;2022-10-13T15:28:37;14.50;99.90
51615;DHT22;37695;52.960;6.188;2022-10-13T15:31:03;14.50;99.90
51615;DHT22;37695;52.960;6.188;2022-10-13T15:33:29;14.50;99.90
51615;DHT22;37695;52.960;6.188;2022-10-13T15:35:55;14.50;99.90
51615;DHT22;37695;52.960;6.188;2022-10-13T15:38:21;14.40;99.90
51615;DHT22;37695;52.960;6.188;2022-10-13T15:40:47;14.50;99.90
51615;DHT22;37695;52.960;6.188;2022-10-13T15:43:13;14.40;99.90
51615;DHT22;37695;52.960;6.188;2022-10-13T15:45:40;14.40;99.90
51615;DHT22;37695;52.960;6.188;2022-10-13T15:48:07;14.40;99.90
51615;DHT22;37695;52.960;6.188;2022-10-13T15:50:34;14.40;99.90
51615;DHT22;37695;52.960;6.188;2022-10-13T15:53:02;14.40;99.90
51615;DHT22;37695;52.960;6.188;2022-10-13T15:55:28;14.40;99.90
51615;DHT22;37695;52.960;6.188;2022-10-13T15:57:53;14.40;99.90
51615;DHT22;37695;52.960;6.188;2022-10-13T16:00:19;14.40;99.90
51615;DHT22;37695;52.960;6.188;2022-10-13T16:02:48;14.40;99.90
51615;DHT22;37695;52.960;6.188;2022-10-13T16:05:15;14.40;99.90
51615;DHT22;37695;52.960;6.188;2022-10-13T16:07:41;14.30;99.90
51615;DHT22;37695;52.960;6.188;2022-10-13T16:10:08;14.30;99.90
51615;DHT22;37695;52.960;6.188;2022-10-13T16:12:34;14.20;99.90
51615;DHT22;37695;52.960;6.188;2022-10-13T16:14:59;14.20;99.90
51615;DHT22;37695;52.960;6.188;2022-10-13T16:17:25;14.20;99.90
51615;DHT22;37695;52.960;6.188;2022-10-13T16:19:50;14.20;99.90
51615;DHT22;37695;52.960;6.188;2022-10-13T16:22:16;14.10;99.90
51615;DHT22;37695;52.960;6.188;2022-10-13T16:24:42;14.10;99.90
51615;DHT22;37695;52.960;6.188;2022-10-13T16:27:07;14.10;99.90
51615;DHT22;37695;52.960;6.188;2022-10-13T16:29:33;14.00;99.90
51615;DHT22;37695;52.960;6.188;2022-10-13T16:31:58;14.00;99.90
51615;DHT22;37695;52.960;6.188;2022-10-13T16:34:25;14.00;99.90
51615;DHT22;37695;52.960;6.188;2022-10-13T16:36:51;13.90;99.90
51615;DHT22;37695;52.960;6.188;2022-10-13T16:39:16;13.90;99.90
51615;DHT22;37695;52.960;6.188;2022-10-13T16:41:42;13.90;99.90
51615;DHT22;37695;52.960;6.188;2022-10-13T16:44:07;13.80;99.90
51615;DHT22;37695;52.960;6.188;2022-10-13T16:46:33;13.80;99.90
51615;DHT22;37695;52.960;6.188;2022-10-13T16:48:59;13.80;99.90
51615;DHT22;37695;52.960;6.188;2022-10-13T16:51:25;13.70;99.90
51615;DHT22;37695;52.960;6.188;2022-10-13T16:53:53;13.70;99.90
51615;DHT22;37695;52.960;6.188;2022-10-13T16:56:20;13.70;99.90
51615;DHT22;37695;52.960;6.188;2022-10-13T16:58:51;13.60;99.90
51615;DHT22;37695;52.960;6.188;2022-10-13T17:01:17;13.60;99.90
51615;DHT22;37695;52.960;6.188;2022-10-13T17:03:43;13.50;99.90
51615;DHT22;37695;52.960;6.188;2022-10-13T17:06:10;13.50;99.90
51615;DHT22;37695;52.960;6.188;2022-10-13T17:08:36;13.50;99.90
51615;DHT22;37695;52.960;6.188;2022-10-13T17:11:02;13.50;99.90
51615;DHT22;37695;52.960;6.188;2022-10-13T17:13:29;13.40;99.90
51615;DHT22;37695;52.960;6.188;2022-10-13T17:15:56;13.40;99.90
51615;DHT22;37695;52.960;6.188;2022-10-13T17:18:22;13.40;99.90